Time;durP1;ratioP1;P1;durP2;ratioP2;P2;SDS_P1;SDS_P2;PMS_P1;PMS_P2;Temp;Humidity;BMP_temperature;BMP_pressure;BME280_temperature;BME280_humidity;BME280_pressure;Samples;Min_cycle;Max_cycle;Signal;HPM_P1;HPM_P2
2023/09/15 00:01:13;;;;;;;9.52;4.90;;;;;;;13.83;96.56;101272.31;5143609;28;20067;-80
2023/09/15 00:03:39;;;;;;;8.50;5.25;;;;;;;13.83;97.13;101274.94;5138194;28;20049;-81
2023/09/15 00:06:06;;;;;;;7.80;5.53;;;;;;;13.81;97.17;101275.09;5135912;28;20043;-81
2023/09/15 00:08:33;;;;;;;9.52;5.03;;;;;;;13.80;97.11;101272.63;5140268;28;20075;-79
2023/09/15 00:11:00;;;;;;;9.00;5.60;;;;;;;13.78;97.17;101272.78;5135320;28;20051;-82
2023/09/15 00:13:27;;;;;;;10.07;5.15;;;;;;;13.75;96.98;101275.75;5121618;28;20048;-82
2023/09/15 00:15:53;;;;;;;9.27;5.10;;;;;;;13.65;97.17;101266.38;5141392;28;20047;-82
2023/09/15 00:18:21;;;;;;;7.57;5.47;;;;;;;13.75;97.33;101264.41;5119717;28;20192;-82
2023/09/15 00:20:48;;;;;;;6.85;4.97;;;;;;;13.66;97.44;101275.91;5126701;28;20516;-82
2023/09/15 00:23:15;;;;;;;10.20;5.60;;;;;;;13.57;97.74;101272.44;5138466;28;20127;-81
2023/09/15 00:25:45;;;;;;;10.90;5.10;;;;;;;13.52;98.20;101275.53;5140643;28;20062;-81
2023/09/15 00:28:13;;;;;;;6.25;4.80;;;;;;;13.54;98.48;101273.56;5141604;28;20046;-81
2023/09/15 00:30:39;;;;;;;7.07;5.30;;;;;;;13.54;98.34;101270.13;5141172;28;20141;-79
2023/09/15 00:33:06;;;;;;;7.63;5.45;;;;;;;13.52;98.63;101265.00;5139346;28;20134;-80
2023/09/15 00:35:34;;;;;;;7.70;5.60;;;;;;;13.41;98.99;101267.94;5135041;28;20068;-81
2023/09/15 00:38:02;;;;;;;10.93;5.63;;;;;;;13.36;98.89;101270.22;5131653;28;20043;-81
2023/09/15 00:40:28;;;;;;;7.82;5.55;;;;;;;13.32;99.11;101268.88;5143128;28;20072;-80
2023/09/15 00:42:55;;;;;;;8.25;5.30;;;;;;;13.33;99.15;101265.25;5141086;28;20115;-80
2023/09/15 00:45:23;;;;;;;7.15;5.07;;;;;;;13.41;99.45;101275.00;5132970;28;20077;-81
2023/09/15 00:47:52;;;;;;;9.07;5.10;;;;;;;13.29;99.37;101269.19;5143939;28;20051;-80
2023/09/15 00:50:23;;;;;;;11.60;5.30;;;;;;;13.22;99.74;101273.47;5133396;28;20507;-81
2023/09/15 00:52:55;;;;;;;7.20;5.10;;;;;;;13.19;100.00;101271.13;5143770;28;20516;-81
2023/09/15 00:55:24;;;;;;;8.70;5.45;;;;;;;13.18;100.00;101267.69;5132316;27;20048;-81
2023/09/15 00:57:52;;;;;;;10.13;5.35;;;;;;;13.04;100.00;101264.78;5126641;28;20389;-81
2023/09/15 01:00:19;;;;;;;7.43;5.18;;;;;;;12.97;100.00;101259.31;5118244;28;20055;-80
2023/09/15 01:02:47;;;;;;;10.18;5.30;;;;;;;12.98;100.00;101254.91;5125329;28;20062;-81
2023/09/15 01:05:20;;;;;;;8.35;5.10;;;;;;;12.94;100.00;101259.63;5132868;27;20138;-81
2023/09/15 01:07:51;;;;;;;9.63;5.85;;;;;;;12.93;100.00;101261.44;5144007;27;20067;-81
2023/09/15 01:10:20;;;;;;;6.85;5.10;;;;;;;12.96;100.00;101263.75;5123302;27;20046;-80
2023/09/15 01:12:49;;;;;;;8.07;5.57;;;;;;;12.99;100.00;101260.00;5134556;27;20065;-81
2023/09/15 01:15:16;;;;;;;7.75;5.70;;;;;;;13.00;100.00;101256.38;5129194;27;20078;-80
2023/09/15 01:17:51;;;;;;;7.57;5.38;;;;;;;13.02;100.00;101248.34;5111628;28;20055;-81
2023/09/15 01:20:29;;;;;;;8.60;5.65;;;;;;;12.95;100.00;101248.97;5111882;28;20043;-80
2023/09/15 01:23:26;;;;;;;9.75;5.68;;;;;;;12.99;100.00;101251.28;5120694;27;20051;-80
2023/09/15 01:26:23;;;;;;;7.50;5.50;;;;;;;12.91;100.00;101250.25;5143662;27;20135;-81
2023/09/15 01:29:06;;;;;;;8.73;5.47;;;;;;;12.81;100.00;101244.28;5139834;27;20482;-79
2023/09/15 01:31:35;;;;;;;7.93;5.63;;;;;;;12.76;100.00;101246.56;5121227;28;20048;-79
2023/09/15 01:34:02;;;;;;;8.65;5.75;;;;;;;12.69;100.00;101239.47;5126941;27;20048;-79
2023/09/15 01:36:29;;;;;;;7.15;5.47;;;;;;;12.69;100.00;101242.09;5144424;27;20370;-79
2023/09/15 01:38:56;;;;;;;9.63;6.43;;;;;;;12.67;100.00;101241.44;5140262;27;20086;-79
2023/09/15 01:41:22;;;;;;;8.02;5.28;;;;;;;12.65;100.00;101244.22;5139603;27;20122;-79
2023/09/15 01:43:51;;;;;;;10.18;5.80;;;;;;;12.61;100.00;101241.06;5141750;27;20111;-80
2023/09/15 01:46:17;;;;;;;12.75;5.53;;;;;;;12.77;100.00;101245.59;5131555;28;20115;-82
2023/09/15 01:48:45;;;;;;;9.77;5.13;;;;;;;12.67;100.00;101239.63;5140053;27;20056;-81
2023/09/15 01:51:12;;;;;;;10.77;5.60;;;;;;;12.58;100.00;101243.19;5145320;27;20054;-80
2023/09/15 01:53:40;;;;;;;9.77;5.10;;;;;;;12.53;100.00;101248.06;5127636;27;20071;-79
2023/09/15 01:56:07;;;;;;;6.40;4.93;;;;;;;12.51;100.00;101239.53;5112189;28;20430;-80
2023/09/15 01:58:33;;;;;;;9.50;5.32;;;;;;;12.41;100.00;101236.16;5141230;27;20074;-79
2023/09/15 02:01:01;;;;;;;6.65;5.38;;;;;;;12.40;100.00;101240.59;5138638;27;20122;-79
2023/09/15 02:03:28;;;;;;;8.00;5.38;;;;;;;12.33;100.00;101246.59;5135155;27;20130;-78
2023/09/15 02:06:00;;;;;;;9.68;5.70;;;;;;;12.38;100.00;101241.72;5142494;27;20086;-78
2023/09/15 02:08:27;;;;;;;;;;;;;;;12.43;100.00;101244.72;5130332;27;20445;-78
2023/09/15 02:10:53;;;;;;;9.23;5.75;;;;;;;12.28;100.00;101245.28;5128136;27;20006;-78
2023/09/15 02:13:20;;;;;;;10.02;5.30;;;;;;;12.29;100.00;101244.28;5135548;27;20134;-78
2023/09/15 02:15:47;;;;;;;8.35;5.60;;;;;;;12.29;100.00;101240.81;5127786;27;20078;-78
2023/09/15 02:18:13;;;;;;;7.60;4.95;;;;;;;12.29;100.00;101244.28;5125760;27;20564;-80
2023/09/15 02:20:40;;;;;;;9.88;5.65;;;;;;;12.20;100.00;101237.34;5125777;27;20058;-79
2023/09/15 02:23:08;;;;;;;7.72;5.38;;;;;;;12.27;100.00;101241.00;5121282;27;20047;-80
2023/09/15 02:25:35;;;;;;;9.63;5.70;;;;;;;12.20;100.00;101241.75;5120145;28;20111;-80
2023/09/15 02:28:02;;;;;;;12.25;5.93;;;;;;;12.18;100.00;101231.41;5119370;28;20123;-79
2023/09/15 02:30:29;;;;;;;10.48;6.15;;;;;;;12.15;100.00;101244.84;5109412;28;20064;-78
2023/09/15 02:32:56;;;;;;;10.02;6.22;;;;;;;12.10;100.00;101243.63;5121162;27;20061;-78
2023/09/15 02:35:22;;;;;;;8.35;5.90;;;;;;;12.17;100.00;101245.50;5127817;27;20048;-79
2023/09/15 02:37:49;;;;;;;8.02;6.03;;;;;;;12.14;100.00;101235.31;5132874;27;20091;-80
2023/09/15 02:40:17;;;;;;;10.55;6.05;;;;;;;12.09;100.00;101234.94;5130739;27;20130;-79
2023/09/15 02:42:44;;;;;;;7.70;5.53;;;;;;;12.04;100.00;101239.81;5125182;27;20048;-77
2023/09/15 02:45:11;;;;;;;8.38;5.90;;;;;;;12.06;100.00;101227.38;5115325;27;20457;-78
2023/09/15 02:47:37;;;;;;;7.32;5.57;;;;;;;11.99;100.00;101231.56;5132807;27;20051;-77
2023/09/15 02:50:04;;;;;;;8.13;5.20;;;;;;;12.06;100.00;101232.63;5129506;27;20083;-78
2023/09/15 02:52:31;;;;;;;8.52;5.78;;;;;;;12.00;100.00;101221.91;5134887;27;20135;-76
2023/09/15 02:54:58;;;;;;;8.93;5.70;;;;;;;11.94;100.00;101229.41;5125264;27;20050;-78
2023/09/15 02:57:26;;;;;;;9.35;5.70;;;;;;;11.99;100.00;101236.81;5136417;27;20093;-80
2023/09/15 02:59:53;;;;;;;13.02;6.20;;;;;;;12.03;100.00;101224.22;5145762;27;20079;-79
2023/09/15 03:02:21;;;;;;;8.98;5.15;;;;;;;12.07;100.00;101233.44;5107694;28;20134;-79
2023/09/15 03:04:48;;;;;;;9.65;5.55;;;;;;;12.01;100.00;101224.38;5118836;28;20103;-80
2023/09/15 03:07:14;;;;;;;8.63;5.88;;;;;;;11.94;100.00;101224.16;5148596;27;20082;-78
2023/09/15 03:09:41;;;;;;;10.95;5.55;;;;;;;11.89;100.00;101225.56;5140912;27;20134;-80
2023/09/15 03:12:08;;;;;;;7.72;5.70;;;;;;;12.00;100.00;101222.72;5142495;27;20050;-79
2023/09/15 03:14:36;;;;;;;8.48;5.72;;;;;;;11.91;100.00;101224.44;5117732;27;20097;-79
2023/09/15 03:17:04;;;;;;;9.93;5.63;;;;;;;11.85;100.00;101221.59;5133243;27;20120;-79
2023/09/15 03:19:30;;;;;;;9.68;5.75;;;;;;;11.87;100.00;101212.59;5142204;27;20111;-80
2023/09/15 03:21:57;;;;;;;9.73;5.50;;;;;;;11.95;100.00;101214.47;5138164;27;20134;-79
2023/09/15 03:24:23;;;;;;;8.07;5.28;;;;;;;11.79;100.00;101209.94;5147618;27;20051;-79
2023/09/15 03:26:50;;;;;;;8.75;5.10;;;;;;;11.81;100.00;101207.16;5146609;27;20054;-80
2023/09/15 03:29:17;;;;;;;8.13;5.30;;;;;;;11.79;100.00;101215.19;5135045;27;20050;-79
2023/09/15 03:31:44;;;;;;;9.25;6.28;;;;;;;11.82;100.00;101203.53;5136503;27;20067;-80
2023/09/15 03:34:11;;;;;;;9.85;6.55;;;;;;;11.79;100.00;101203.88;5133140;27;20047;-80
2023/09/15 03:36:38;;;;;;;11.73;5.50;;;;;;;11.75;100.00;101210.34;5132404;27;20050;-80
2023/09/15 03:39:05;;;;;;;11.85;5.75;;;;;;;11.76;100.00;101202.34;5135784;27;20052;-79
2023/09/15 03:41:32;;;;;;;9.60;5.85;;;;;;;11.69;100.00;101203.91;5119958;27;20047;-81
2023/09/15 03:43:59;;;;;;;7.80;5.70;;;;;;;11.67;100.00;101205.03;5142153;27;20055;-79
2023/09/15 03:46:26;;;;;;;13.00;6.05;;;;;;;11.68;100.00;101197.00;5142093;27;20082;-78
2023/09/15 03:48:53;;;;;;;9.82;5.97;;;;;;;11.66;100.00;101198.13;5133442;27;20048;-79
2023/09/15 03:51:20;;;;;;;8.50;6.00;;;;;;;11.57;100.00;101197.22;5120621;28;20077;-80
2023/09/15 03:53:47;;;;;;;8.18;5.85;;;;;;;11.62;100.00;101197.59;5144017;28;20188;-79
2023/09/15 03:56:13;;;;;;;11.50;5.70;;;;;;;11.76;100.00;101196.28;5135867;28;20152;-78
2023/09/15 03:58:55;;;;;;;9.35;5.45;;;;;;;11.71;100.00;101201.13;5124568;28;20437;-80
2023/09/15 04:01:27;;;;;;;16.17;5.57;;;;;;;11.68;100.00;101198.81;5125318;28;20043;-78
2023/09/15 04:04:02;;;;;;;11.50;6.00;;;;;;;11.74;100.00;101188.56;5124997;28;20048;-78
2023/09/15 04:06:30;;;;;;;8.32;5.35;;;;;;;11.76;100.00;101204.97;5127319;28;20055;-78
2023/09/15 04:08:57;;;;;;;8.77;5.70;;;;;;;11.60;100.00;101189.88;5103783;28;20107;-79
2023/09/15 04:11:24;;;;;;;14.98;6.65;;;;;;;11.60;100.00;101189.88;5121209;28;20043;-78
2023/09/15 04:13:50;;;;;;;9.50;5.15;;;;;;;11.63;100.00;101200.06;5123111;28;20047;-80
2023/09/15 04:16:17;;;;;;;12.13;6.15;;;;;;;11.57;100.00;101203.28;5135863;28;20061;-79
2023/09/15 04:18:44;;;;;;;9.50;5.80;;;;;;;11.53;100.00;101207.19;5124846;28;20089;-81
2023/09/15 04:21:12;;;;;;;9.65;5.30;;;;;;;11.54;100.00;101211.44;5150036;28;20100;-81
2023/09/15 04:23:39;;;;;;;8.43;5.68;;;;;;;11.47;100.00;101214.81;5140635;28;20043;-81
2023/09/15 04:26:05;;;;;;;6.65;5.45;;;;;;;11.48;100.00;101198.94;5140748;28;20071;-80
2023/09/15 04:28:32;;;;;;;8.98;5.60;;;;;;;11.44;100.00;101202.81;5128757;28;20043;-82
2023/09/15 04:30:59;;;;;;;12.77;6.65;;;;;;;11.49;100.00;101211.06;5137461;27;20093;-82
2023/09/15 04:33:26;;;;;;;8.52;5.53;;;;;;;11.47;100.00;101205.13;5122799;27;20055;-84
2023/09/15 04:35:53;;;;;;;9.82;5.95;;;;;;;11.40;100.00;101205.88;5128623;27;20051;-82
2023/09/15 04:38:21;;;;;;;12.88;6.03;;;;;;;11.40;100.00;101214.56;5130959;27;20147;-82
2023/09/15 04:40:48;;;;;;;11.88;5.38;;;;;;;11.33;100.00;101203.03;5138516;27;20051;-81
2023/09/15 04:43:16;;;;;;;9.63;5.63;;;;;;;11.33;100.00;101202.22;5126780;28;20051;-80
2023/09/15 04:45:43;;;;;;;10.35;5.78;;;;;;;11.30;100.00;101193.69;5125867;28;20486;-82
2023/09/15 04:48:10;;;;;;;10.27;5.90;;;;;;;11.29;100.00;101199.06;5118925;27;20078;-81
2023/09/15 04:50:37;;;;;;;6.95;5.38;;;;;;;11.26;100.00;101196.75;5131935;27;20071;-80
2023/09/15 04:53:05;;;;;;;14.10;6.07;;;;;;;11.26;100.00;101196.75;5125612;28;20043;-82
2023/09/15 04:55:33;;;;;;;10.80;5.97;;;;;;;11.22;100.00;101203.25;5127440;28;20119;-80
2023/09/15 04:57:59;;;;;;;7.88;5.63;;;;;;;11.22;100.00;101200.63;5137917;27;20129;-81
2023/09/15 05:00:27;;;;;;;9.85;5.75;;;;;;;11.28;100.00;101205.28;5148518;27;20062;-80
2023/09/15 05:02:55;;;;;;;8.93;5.78;;;;;;;11.24;100.00;101209.16;5134080;27;20045;-81
2023/09/15 05:05:22;;;;;;;9.70;5.65;;;;;;;11.22;100.00;101205.84;5128286;28;20071;-81
2023/09/15 05:07:49;;;;;;;10.77;5.85;;;;;;;11.23;100.00;101212.75;5134120;27;20071;-80
2023/09/15 05:10:16;;;;;;;8.18;5.65;;;;;;;11.26;100.00;101215.06;5150191;27;20062;-81
2023/09/15 05:12:44;;;;;;;11.45;5.50;;;;;;;11.24;100.00;101217.03;5139777;27;20040;-81
2023/09/15 05:15:11;;;;;;;11.85;5.80;;;;;;;11.22;100.00;101221.56;5120327;27;20291;-82
2023/09/15 05:17:43;;;;;;;12.30;5.97;;;;;;;11.30;100.00;101225.13;5115541;28;20059;-80
2023/09/15 05:20:20;;;;;;;8.70;5.30;;;;;;;11.35;100.00;101229.91;5139475;27;20044;-82
2023/09/15 05:22:50;;;;;;;8.70;5.88;;;;;;;11.34;100.00;101219.59;5126727;27;20317;-81
2023/09/15 05:25:18;;;;;;;10.50;5.97;;;;;;;11.34;100.00;101220.41;5121200;27;20055;-82
2023/09/15 05:27:46;;;;;;;7.97;5.28;;;;;;;11.42;100.00;101217.84;5130204;28;20101;-80
2023/09/15 05:30:15;;;;;;;9.52;5.88;;;;;;;11.35;100.00;101215.97;5147704;27;20055;-79
2023/09/15 05:32:41;;;;;;;11.27;5.32;;;;;;;11.35;100.00;101226.44;5133565;27;20045;-80
2023/09/15 05:35:10;;;;;;;11.38;5.97;;;;;;;11.47;100.00;101230.53;5129531;27;20079;-80
2023/09/15 05:37:37;;;;;;;9.75;5.80;;;;;;;11.51;100.00;101237.13;5134294;27;20047;-79
2023/09/15 05:40:04;;;;;;;9.90;5.80;;;;;;;11.45;100.00;101227.22;5141257;27;20095;-79
2023/09/15 05:42:31;;;;;;;12.52;6.15;;;;;;;11.45;100.00;101229.84;5144783;27;20473;-81
2023/09/15 05:45:01;;;;;;;7.90;5.35;;;;;;;11.62;100.00;101234.31;5134567;27;20104;-80
2023/09/15 05:47:27;;;;;;;12.10;5.57;;;;;;;11.63;100.00;101228.91;5129102;27;20086;-80
2023/09/15 05:49:54;;;;;;;12.45;5.70;;;;;;;11.64;100.00;101220.06;5151920;27;20079;-80
2023/09/15 05:52:20;;;;;;;9.50;5.53;;;;;;;11.73;100.00;101225.41;5142342;27;20074;-79
2023/09/15 05:54:47;;;;;;;7.65;5.32;;;;;;;11.77;100.00;101217.13;5142198;27;20086;-80
2023/09/15 05:57:14;;;;;;;8.15;5.30;;;;;;;11.88;100.00;101219.50;5147231;27;20055;-79
2023/09/15 05:59:40;;;;;;;7.95;5.53;;;;;;;11.83;100.00;101218.28;5139280;27;20050;-79
2023/09/15 06:02:15;;;;;;;9.27;5.30;;;;;;;11.96;100.00;101221.38;5157811;22;20070;-81
2023/09/15 06:04:48;;;;;;;9.98;5.50;;;;;;;12.01;100.00;101213.06;5156556;27;20099;-80
2023/09/15 06:11:12;;;;;;;8.40;5.45;;;;;;;12.22;100.00;101195.19;5051867;28;20052;-79
2023/09/15 06:13:39;;;;;;;9.95;5.47;;;;;;;12.25;100.00;101184.41;5133564;27;20047;-79
2023/09/15 06:16:08;;;;;;;8.80;5.15;;;;;;;12.45;100.00;101190.25;5123282;27;20051;-79
2023/09/15 06:18:36;;;;;;;11.18;5.78;;;;;;;13.27;100.00;101200.19;5131460;27;20051;-79
2023/09/15 06:21:05;;;;;;;11.48;5.40;;;;;;;14.08;97.07;101171.38;5132743;27;20317;-79
2023/09/15 06:23:35;;;;;;;8.68;4.95;;;;;;;14.81;93.42;101159.88;5131961;27;20074;-79
2023/09/15 06:26:02;;;;;;;12.52;5.47;;;;;;;15.17;89.88;101144.38;5125273;27;20097;-79
2023/09/15 06:28:28;;;;;;;11.73;5.45;;;;;;;16.03;86.52;101145.94;5131142;27;20130;-79
2023/09/15 06:31:05;;;;;;;7.88;4.78;;;;;;;16.80;83.18;101128.75;5136696;27;20076;-80
2023/09/15 06:33:52;;;;;;;7.72;4.60;;;;;;;16.96;80.97;101097.84;5124918;27;20059;-80
2023/09/15 06:36:25;;;;;;;8.38;4.80;;;;;;;16.49;81.29;101107.81;5134364;27;20047;-81
2023/09/15 06:39:12;;;;;;;8.70;4.82;;;;;;;16.59;81.86;101123.38;5148959;27;20047;-82
2023/09/15 06:41:38;;;;;;;7.97;4.53;;;;;;;16.96;80.45;101119.81;5151917;27;20053;-81
2023/09/15 06:44:07;;;;;;;11.40;5.10;;;;;;;17.35;79.01;101108.84;5150690;27;20043;-81
2023/09/15 06:46:36;;;;;;;7.55;4.70;;;;;;;17.51;78.53;101105.91;5146535;27;20073;-81
2023/09/15 06:49:08;;;;;;;11.10;4.90;;;;;;;17.23;78.89;101113.78;5144162;27;20043;-81
2023/09/15 06:52:00;;;;;;;11.48;4.63;;;;;;;17.97;76.80;101100.22;5146951;27;20050;-81
2023/09/15 06:54:30;;;;;;;8.18;4.75;;;;;;;18.03;76.72;101111.84;5028173;28;20053;-81
2023/09/15 06:56:59;;;;;;;8.10;4.75;;;;;;;17.85;76.51;101110.53;5139944;27;20047;-81
2023/09/15 06:59:26;;;;;;;5.40;4.18;;;;;;;17.43;77.44;101121.94;5144126;27;20054;-81
2023/09/15 07:01:52;;;;;;;9.82;4.65;;;;;;;17.34;77.38;101115.13;5152046;27;20055;-81
2023/09/15 07:04:20;;;;;;;10.77;4.85;;;;;;;17.77;77.23;101126.53;5151890;27;20058;-81
2023/09/15 07:06:47;;;;;;;11.00;5.00;;;;;;;17.24;77.78;101114.63;5151745;27;20047;-81
2023/09/15 07:09:14;;;;;;;7.00;4.45;;;;;;;17.05;79.28;101144.28;5152287;27;20122;-81
2023/09/15 07:11:41;;;;;;;8.63;4.60;;;;;;;17.21;78.53;101113.16;5154477;27;20047;-81
2023/09/15 07:14:11;;;;;;;10.10;4.60;;;;;;;16.70;80.04;101132.69;5155825;27;20039;-81
2023/09/15 07:16:40;;;;;;;9.77;4.68;;;;;;;16.70;80.94;101130.88;5146440;27;20039;-81
2023/09/15 07:19:07;;;;;;;8.95;4.68;;;;;;;17.43;79.98;101127.22;5137702;27;20059;-81
2023/09/15 07:21:40;;;;;;;5.25;4.32;;;;;;;17.57;78.61;101099.88;5139037;27;20297;-81
2023/09/15 07:24:07;;;;;;;6.80;4.80;;;;;;;17.71;77.87;101122.00;5138396;27;20047;-81
2023/09/15 07:26:34;;;;;;;7.35;4.38;;;;;;;17.65;76.88;101082.22;5141762;27;20061;-81
2023/09/15 07:29:04;;;;;;;8.73;4.30;;;;;;;17.21;77.64;101104.41;5142662;27;20063;-81
2023/09/15 07:31:40;;;;;;;9.23;4.63;;;;;;;17.73;77.47;101105.94;5141664;27;20054;-81
2023/09/15 07:34:15;;;;;;;7.50;4.50;;;;;;;18.07;76.27;101087.44;5141975;27;20047;-81
2023/09/15 07:37:00;;;;;;;6.32;4.25;;;;;;;18.39;75.56;101087.84;5133696;27;20047;-81
2023/09/15 07:39:32;;;;;;;7.65;4.55;;;;;;;18.77;74.05;101085.59;5136528;27;20051;-80
2023/09/15 07:42:08;;;;;;;8.73;4.47;;;;;;;18.93;73.19;101082.56;5132692;27;20074;-81
2023/09/15 07:44:39;;;;;;;8.10;4.60;;;;;;;18.24;74.03;101078.19;5144788;27;20045;-81
2023/09/15 07:47:06;;;;;;;6.55;4.40;;;;;;;18.26;74.41;101080.66;5140218;27;20107;-81
2023/09/15 07:49:52;;;;;;;7.50;4.45;;;;;;;18.53;74.58;101081.59;5140933;27;20077;-81
2023/09/15 07:52:24;;;;;;;7.22;4.40;;;;;;;18.34;74.49;101087.63;5136892;28;20051;-79
2023/09/15 07:54:54;;;;;;;6.90;4.30;;;;;;;18.45;74.51;101092.34;5141465;27;20061;-80
2023/09/15 07:57:20;;;;;;;9.75;4.78;;;;;;;18.39;75.32;101095.81;5129430;28;20047;-80
2023/09/15 07:59:49;;;;;;;11.07;4.63;;;;;;;18.79;74.14;101070.31;5134182;28;20571;-80
2023/09/15 08:02:53;;;;;;;11.55;5.10;;;;;;;18.47;74.25;101072.59;5133252;28;20126;-80
2023/09/15 08:05:24;;;;;;;6.20;4.22;;;;;;;19.32;72.42;101075.72;5142006;27;20050;-80
2023/09/15 08:07:58;;;;;;;9.18;4.53;;;;;;;19.69;70.90;101061.06;5148490;27;20047;-81
2023/09/15 08:10:30;;;;;;;7.20;4.25;;;;;;;20.05;70.27;101066.72;5137697;27;20123;-80
2023/09/15 08:13:00;;;;;;;6.60;4.05;;;;;;;19.08;72.14;101083.22;5144740;27;20082;-80
2023/09/15 08:15:27;;;;;;;8.82;4.22;;;;;;;20.09;70.19;101061.81;5135805;27;20060;-80
2023/09/15 08:17:54;;;;;;;10.93;4.38;;;;;;;20.21;70.44;101074.25;5148717;27;20072;-81
2023/09/15 08:20:23;;;;;;;10.65;4.20;;;;;;;19.45;70.95;101076.53;5141162;27;20270;-80
2023/09/15 08:22:54;;;;;;;9.45;4.40;;;;;;;18.90;71.75;101062.56;5135436;27;20050;-80
2023/09/15 08:25:21;;;;;;;9.18;5.43;;;;;;;18.73;73.44;101087.81;5142238;27;20057;-80
2023/09/15 08:27:54;;;;;;;11.48;4.78;;;;;;;19.11;73.39;101080.19;5137314;27;20497;-80
2023/09/15 08:30:22;;;;;;;8.13;4.28;;;;;;;19.93;71.41;101094.94;5145757;27;20051;-80
2023/09/15 08:32:49;;;;;;;9.30;4.28;;;;;;;19.26;71.20;101056.13;5144072;27;20047;-81
2023/09/15 08:35:16;;;;;;;9.40;4.32;;;;;;;19.09;72.41;101068.13;5132735;27;20054;-80
2023/09/15 08:37:43;;;;;;;7.32;4.90;;;;;;;19.19;71.87;101060.59;5142877;27;20063;-80
2023/09/15 08:40:14;;;;;;;9.05;3.72;;;;;;;19.42;72.14;101070.81;5137471;27;20138;-80
2023/09/15 08:42:50;;;;;;;9.15;4.40;;;;;;;19.53;71.97;101073.72;5132538;27;20052;-80
2023/09/15 08:45:19;;;;;;;8.52;4.47;;;;;;;18.79;72.61;101065.81;5142491;27;20043;-80
2023/09/15 08:47:54;;;;;;;7.13;4.30;;;;;;;18.88;73.22;101075.25;5135650;27;20123;-80
2023/09/15 08:50:27;;;;;;;7.75;4.05;;;;;;;19.20;72.31;101067.56;5135210;27;20043;-80
2023/09/15 08:52:57;;;;;;;10.27;4.43;;;;;;;20.70;70.54;101067.56;5141114;27;20184;-81
2023/09/15 08:55:25;;;;;;;8.93;4.70;;;;;;;19.71;70.04;101064.34;5136012;27;20051;-79
2023/09/15 08:57:55;;;;;;;9.48;4.18;;;;;;;20.11;71.03;101071.22;5136308;27;20054;-81
2023/09/15 09:00:23;;;;;;;9.48;4.20;;;;;;;20.17;71.05;101081.03;5131629;27;20043;-80
2023/09/15 09:02:50;;;;;;;6.22;3.90;;;;;;;19.68;70.82;101081.50;5120019;27;20596;-80
2023/09/15 09:05:17;;;;;;;8.40;4.13;;;;;;;19.77;71.25;101090.06;5120829;27;20081;-80
2023/09/15 09:07:45;;;;;;;8.63;4.30;;;;;;;19.41;71.20;101077.16;5129947;27;20075;-81
2023/09/15 09:10:12;;;;;;;10.18;4.72;;;;;;;19.48;71.37;101076.13;5129527;27;20138;-80
2023/09/15 09:12:40;;;;;;;5.47;4.13;;;;;;;19.69;71.03;101084.97;5131514;27;20059;-80
2023/09/15 09:15:10;;;;;;;8.18;4.20;;;;;;;19.73;71.51;101081.69;5131684;27;20047;-81
2023/09/15 09:17:39;;;;;;;5.50;4.10;;;;;;;20.16;70.35;101079.38;5128761;27;20472;-80
2023/09/15 09:20:08;;;;;;;9.18;4.60;;;;;;;19.54;70.94;101080.66;5135037;27;20139;-81
2023/09/15 09:22:35;;;;;;;12.77;4.55;;;;;;;20.27;71.06;101095.72;5135790;27;20316;-80
2023/09/15 09:25:02;;;;;;;7.72;4.35;;;;;;;20.37;71.88;101096.06;5130076;27;20073;-80
2023/09/15 09:27:33;;;;;;;7.85;4.35;;;;;;;20.81;69.41;101061.56;5126516;27;20055;-80
2023/09/15 09:30:01;;;;;;;10.13;4.15;;;;;;;20.62;69.65;101053.69;5124892;27;20044;-81
2023/09/15 09:32:28;;;;;;;7.28;4.22;;;;;;;20.05;70.93;101082.66;5123233;27;20043;-81
2023/09/15 09:34:54;;;;;;;7.30;4.18;;;;;;;19.93;71.48;101083.50;5121110;27;20046;-81
2023/09/15 09:37:25;;;;;;;9.90;4.43;;;;;;;20.01;70.22;101065.50;5131597;27;20075;-80
2023/09/15 09:39:52;;;;;;;6.75;4.45;;;;;;;19.88;70.70;101070.84;5126333;27;20055;-80
2023/09/15 09:42:19;;;;;;;8.85;4.47;;;;;;;19.76;70.40;101065.34;5135000;27;20129;-81
2023/09/15 09:44:46;;;;;;;11.35;4.65;;;;;;;19.89;71.18;101075.13;5130628;27;20047;-80
2023/09/15 09:47:14;;;;;;;6.85;4.40;;;;;;;20.08;70.66;101061.00;5125655;27;20071;-80
2023/09/15 09:49:41;;;;;;;8.68;4.35;;;;;;;20.35;70.15;101043.13;5122306;27;20135;-81
2023/09/15 09:52:08;;;;;;;7.65;4.20;;;;;;;20.32;69.94;101042.75;5125921;27;20579;-80
2023/09/15 09:54:35;;;;;;;13.00;5.07;;;;;;;20.23;68.77;101030.72;5126916;27;20049;-81
2023/09/15 09:57:02;;;;;;;7.55;4.75;;;;;;;20.45;68.62;101029.44;5131996;27;20074;-81
2023/09/15 09:59:29;;;;;;;8.40;4.68;;;;;;;20.41;68.10;101021.06;5128279;27;20173;-80
2023/09/15 10:01:55;;;;;;;7.05;4.80;;;;;;;20.33;68.46;101015.94;5123718;27;20058;-80
2023/09/15 10:04:23;;;;;;;7.47;4.40;;;;;;;20.49;68.39;101025.31;5132885;27;20071;-81
2023/09/15 10:06:51;;;;;;;8.20;4.80;;;;;;;20.53;67.52;101018.56;5127955;27;20078;-80
2023/09/15 10:09:19;;;;;;;7.00;4.70;;;;;;;20.63;67.36;101012.78;5123644;27;20576;-80
2023/09/15 10:11:46;;;;;;;6.70;4.70;;;;;;;20.73;67.51;101021.94;5122759;27;20076;-80
2023/09/15 10:14:13;;;;;;;9.68;4.35;;;;;;;20.72;67.03;101020.31;5138221;27;20489;-80
2023/09/15 10:16:41;;;;;;;6.57;4.38;;;;;;;21.33;66.67;101009.06;5120388;27;20090;-80
2023/09/15 10:19:08;;;;;;;7.07;4.93;;;;;;;21.28;65.29;101003.56;5129804;27;20108;-80
2023/09/15 10:21:38;;;;;;;11.52;5.13;;;;;;;20.90;65.99;101010.78;5136658;27;20089;-79
2023/09/15 10:24:09;;;;;;;7.78;4.97;;;;;;;21.35;65.55;101000.84;5135726;27;20062;-80
2023/09/15 10:26:41;;;;;;;8.60;4.97;;;;;;;21.15;64.50;100988.50;5130524;27;20139;-80
2023/09/15 10:29:08;;;;;;;8.40;4.95;;;;;;;21.37;64.74;100991.63;5131771;27;20052;-80
2023/09/15 10:31:35;;;;;;;6.88;4.72;;;;;;;21.45;64.73;100999.31;5126231;27;20513;-81
2023/09/15 10:34:02;;;;;;;7.85;4.93;;;;;;;21.20;64.83;100995.84;5120887;27;20075;-80
2023/09/15 10:36:29;;;;;;;8.27;5.03;;;;;;;21.11;64.68;100991.81;5123691;27;20054;-80
2023/09/15 10:38:58;;;;;;;6.57;4.53;;;;;;;21.33;64.10;100987.75;5129327;27;20058;-80
2023/09/15 10:41:27;;;;;;;7.82;5.13;;;;;;;21.36;63.46;100989.97;5134558;27;20505;-80
2023/09/15 10:43:53;;;;;;;7.45;4.85;;;;;;;21.25;63.44;100987.25;5131882;27;20051;-80
2023/09/15 10:46:20;;;;;;;7.45;4.88;;;;;;;21.57;64.13;100998.63;5127343;27;20527;-80
2023/09/15 10:48:48;;;;;;;8.35;4.55;;;;;;;21.77;62.96;100984.06;5121449;27;20126;-80
2023/09/15 10:51:18;;;;;;;6.72;4.68;;;;;;;21.89;62.82;100981.47;5130661;27;20083;-80
2023/09/15 10:53:45;;;;;;;11.30;4.80;;;;;;;21.71;62.86;100984.16;5133759;27;20059;-79
2023/09/15 10:56:14;;;;;;;7.65;5.07;;;;;;;21.89;63.14;100989.47;5141833;27;20056;-80
2023/09/15 10:58:41;;;;;;;6.82;4.13;;;;;;;22.04;63.35;100991.81;5128062;27;20136;-80
2023/09/15 11:01:10;;;;;;;8.70;4.88;;;;;;;21.87;63.13;100983.53;5121272;27;20051;-79
2023/09/15 11:03:38;;;;;;;5.63;4.18;;;;;;;21.97;62.53;100981.19;5135890;27;20066;-81
2023/09/15 11:06:08;;;;;;;7.10;4.32;;;;;;;22.15;62.81;100983.06;5127110;27;20111;-80
2023/09/15 11:08:35;;;;;;;8.10;4.63;;;;;;;22.18;62.19;100966.63;5135539;27;20047;-80
2023/09/15 11:11:04;;;;;;;5.50;4.05;;;;;;;22.23;61.38;100963.25;5135907;27;20138;-81
2023/09/15 11:13:33;;;;;;;7.50;3.78;;;;;;;22.61;61.63;100961.13;5131008;27;20071;-81
2023/09/15 11:16:00;;;;;;;7.93;3.95;;;;;;;22.96;61.28;100963.91;5132412;27;20055;-81
2023/09/15 11:18:27;;;;;;;8.85;4.13;;;;;;;22.64;61.12;100957.19;5130248;27;20170;-81
2023/09/15 11:20:55;;;;;;;6.35;4.15;;;;;;;22.20;60.74;100953.06;5135616;27;20079;-81
2023/09/15 11:23:24;;;;;;;7.25;4.00;;;;;;;22.46;62.01;100968.72;5127573;27;20051;-81
2023/09/15 11:25:59;;;;;;;5.55;3.80;;;;;;;22.77;61.24;100954.31;5129552;27;20044;-80
2023/09/15 11:28:26;;;;;;;6.18;3.90;;;;;;;22.43;60.76;100948.63;5127013;27;20086;-80
2023/09/15 11:30:54;;;;;;;5.05;3.75;;;;;;;22.60;60.45;100938.16;5130175;27;20111;-80